Time;durP1;ratioP1;P1;durP2;ratioP2;P2;SDS_P1;SDS_P2;PMS_P1;PMS_P2;Temp;Humidity;BMP_temperature;BMP_pressure;BME280_temperature;BME280_humidity;BME280_pressure;Samples;Min_cycle;Max_cycle;Signal;HPM_P1;HPM_P2
2023/11/19 00:00:11;;;;;;;3.10;1.95;;;7.80;95.60;;;;;;5013448;28;20197;-91
2023/11/19 00:02:38;;;;;;;3.95;1.70;;;7.90;95.70;;;;;;5013732;28;20196;-91
2023/11/19 00:05:11;;;;;;;3.50;2.00;;;7.90;95.70;;;;;;5013471;28;20227;-91
2023/11/19 00:07:41;;;;;;;4.00;2.15;;;7.80;95.60;;;;;;5013998;28;20573;-90
2023/11/19 00:10:09;;;;;;;3.08;1.88;;;7.80;95.60;;;;;;5013489;28;20188;-91
2023/11/19 00:12:40;;;;;;;3.38;2.30;;;7.80;95.40;;;;;;5013152;28;20235;-90
2023/11/19 00:15:11;;;;;;;3.33;2.40;;;7.80;95.50;;;;;;5013276;28;20685;-90
2023/11/19 00:17:39;;;;;;;2.72;1.73;;;7.80;95.60;;;;;;5013844;28;20216;-89
2023/11/19 00:20:09;;;;;;;3.85;2.50;;;7.80;95.60;;;;;;5013282;28;20279;-90
2023/11/19 00:22:35;;;;;;;2.95;1.75;;;7.80;95.50;;;;;;5013750;28;20591;-91
2023/11/19 00:25:03;;;;;;;3.30;1.45;;;7.80;95.50;;;;;;5013640;28;20275;-90
2023/11/19 00:27:30;;;;;;;2.42;1.38;;;7.80;95.70;;;;;;5013084;28;20275;-91
2023/11/19 00:29:58;;;;;;;2.75;1.67;;;7.80;95.90;;;;;;5013282;28;20722;-90
2023/11/19 00:32:25;;;;;;;2.42;1.38;;;7.80;96.70;;;;;;5013558;28;20550;-92
2023/11/19 00:34:52;;;;;;;3.08;1.45;;;7.80;96.40;;;;;;5013607;28;20224;-91
2023/11/19 00:37:20;;;;;;;6.10;1.30;;;7.80;96.20;;;;;;5013030;28;20737;-90
2023/11/19 00:39:47;;;;;;;2.42;1.23;;;7.80;96.40;;;;;;5013615;28;20188;-90
2023/11/19 00:42:14;;;;;;;2.60;1.10;;;7.80;96.40;;;;;;5013541;28;20188;-90
2023/11/19 00:44:42;;;;;;;3.50;1.50;;;7.80;96.70;;;;;;5013557;28;20284;-89
2023/11/19 00:47:09;;;;;;;2.95;1.40;;;7.80;97.00;;;;;;5013593;28;20291;-90
2023/11/19 00:49:35;;;;;;;2.70;1.35;;;7.80;97.10;;;;;;5013064;28;20227;-90
2023/11/19 00:52:03;;;;;;;3.25;1.20;;;7.80;97.40;;;;;;5013057;28;20279;-90
2023/11/19 00:54:31;;;;;;;2.85;1.70;;;7.80;97.50;;;;;;5013312;28;20193;-90
2023/11/19 00:56:58;;;;;;;3.17;1.15;;;7.80;97.60;;;;;;5013120;28;20318;-90
2023/11/19 00:59:25;;;;;;;2.72;1.30;;;7.90;97.70;;;;;;5013010;28;20268;-90
2023/11/19 01:01:52;;;;;;;2.35;1.00;;;7.80;97.90;;;;;;5013289;28;20234;-91
2023/11/19 01:04:19;;;;;;;2.13;1.02;;;7.90;98.30;;;;;;5013082;28;20299;-91
2023/11/19 01:06:46;;;;;;;2.50;1.10;;;8.00;98.40;;;;;;5012942;28;20223;-91
2023/11/19 01:09:13;;;;;;;2.40;1.10;;;8.00;98.70;;;;;;5013232;28;20558;-89
2023/11/19 01:11:40;;;;;;;2.38;1.50;;;8.00;99.20;;;;;;5013292;28;20622;-90
2023/11/19 01:14:07;;;;;;;2.67;1.58;;;8.10;99.30;;;;;;5013170;28;20536;-90
2023/11/19 01:16:34;;;;;;;2.67;1.60;;;8.10;99.40;;;;;;5013241;28;20295;-90
2023/11/19 01:19:04;;;;;;;1.90;0.90;;;8.20;99.50;;;;;;5013105;28;20310;-89
2023/11/19 01:21:31;;;;;;;2.10;0.90;;;8.30;99.70;;;;;;5013115;28;20181;-90
2023/11/19 01:23:59;;;;;;;2.33;0.90;;;8.30;99.70;;;;;;5012772;28;20227;-89
2023/11/19 01:26:26;;;;;;;2.83;1.10;;;8.40;99.50;;;;;;5012859;28;20670;-90
2023/11/19 01:28:54;;;;;;;2.55;1.30;;;8.50;99.40;;;;;;5016798;28;20561;-89
2023/11/19 01:31:21;;;;;;;2.20;0.90;;;8.50;99.50;;;;;;5016190;28;20231;-90
2023/11/19 01:33:48;;;;;;;2.00;0.80;;;8.50;99.60;;;;;;5016479;28;20279;-89
2023/11/19 01:36:15;;;;;;;2.13;1.02;;;8.50;99.70;;;;;;5016113;28;20235;-90
2023/11/19 01:38:42;;;;;;;3.00;1.00;;;8.50;99.50;;;;;;5016290;28;20251;-90
2023/11/19 01:41:09;;;;;;;3.00;1.00;;;8.60;99.70;;;;;;5016310;28;20224;-89
2023/11/19 01:43:37;;;;;;;2.03;1.00;;;8.60;99.60;;;;;;5016075;28;20192;-89
2023/11/19 01:46:09;;;;;;;2.10;0.90;;;8.70;99.60;;;;;;5015920;28;20709;-89
2023/11/19 01:48:40;;;;;;;2.72;1.25;;;8.60;99.60;;;;;;5015973;28;20188;-89
2023/11/19 01:51:09;;;;;;;2.22;0.88;;;8.70;99.70;;;;;;5016220;28;20180;-89
2023/11/19 01:53:37;;;;;;;1.95;0.77;;;8.70;99.80;;;;;;5016231;28;20216;-89
2023/11/19 01:56:06;;;;;;;2.15;0.70;;;8.70;99.80;;;;;;5015792;28;20733;-88
2023/11/19 01:58:34;;;;;;;4.68;1.08;;;8.70;99.90;;;;;;5015468;28;20239;-89
2023/11/19 02:01:03;;;;;;;3.45;1.13;;;8.70;99.90;;;;;;5015688;28;20295;-88
2023/11/19 02:03:33;;;;;;;2.40;0.90;;;8.70;99.90;;;;;;5015922;28;20204;-89
2023/11/19 02:06:00;;;;;;;2.75;1.10;;;8.70;99.90;;;;;;5015892;28;20607;-88
2023/11/19 02:08:27;;;;;;;2.20;0.98;;;8.80;99.90;;;;;;5015448;28;20231;-88
2023/11/19 02:10:56;;;;;;;2.20;1.00;;;8.80;99.80;;;;;;5015754;28;20291;-88
2023/11/19 02:13:24;;;;;;;2.72;0.93;;;8.80;99.90;;;;;;5015648;28;20279;-88
2023/11/19 02:15:51;;;;;;;2.15;1.00;;;8.80;99.90;;;;;;5016008;28;20200;-88
2023/11/19 02:18:19;;;;;;;2.40;0.88;;;8.90;99.90;;;;;;5015618;28;20243;-88
2023/11/19 02:20:51;;;;;;;3.97;1.45;;;8.90;99.60;;;;;;5015341;28;20228;-88
2023/11/19 02:23:19;;;;;;;2.15;0.90;;;8.80;99.90;;;;;;5015228;28;20223;-88
2023/11/19 02:25:58;;;;;;;2.22;0.73;;;8.90;99.90;;;;;;5015214;28;20729;-88
2023/11/19 02:28:27;;;;;;;2.00;0.80;;;8.90;99.90;;;;;;5015478;28;20595;-87
2023/11/19 02:30:54;;;;;;;2.33;1.02;;;8.80;99.90;;;;;;5015027;28;20232;-87
2023/11/19 02:33:21;;;;;;;3.35;1.08;;;8.80;99.90;;;;;;5015354;28;20279;-87
2023/11/19 02:35:48;;;;;;;2.20;0.98;;;8.90;99.90;;;;;;5015077;28;20231;-88
2023/11/19 02:38:15;;;;;;;3.85;0.93;;;8.80;99.90;;;;;;5014162;28;20252;-86
2023/11/19 02:40:42;;;;;;;2.03;0.85;;;8.90;99.90;;;;;;5014808;28;20231;-87
2023/11/19 02:43:09;;;;;;;1.80;0.80;;;8.90;99.90;;;;;;5015223;28;20227;-86
2023/11/19 02:45:37;;;;;;;2.17;1.15;;;8.90;99.90;;;;;;5015265;28;20198;-86
2023/11/19 02:48:06;;;;;;;1.67;0.70;;;9.00;99.90;;;;;;5015186;28;20250;-87
2023/11/19 02:50:33;;;;;;;2.47;0.80;;;9.00;99.90;;;;;;5014833;28;20188;-86
2023/11/19 02:53:01;;;;;;;2.22;0.93;;;9.10;99.90;;;;;;5014642;28;20353;-86
2023/11/19 02:55:30;;;;;;;2.75;0.90;;;9.10;99.90;;;;;;5014968;28;20526;-86
2023/11/19 02:57:59;;;;;;;2.65;1.00;;;9.20;99.90;;;;;;5014400;28;20224;-85
2023/11/19 03:00:35;;;;;;;2.15;0.80;;;9.30;99.90;;;;;;5014848;28;20189;-87
2023/11/19 03:03:17;;;;;;;2.00;0.90;;;9.30;99.90;;;;;;5014829;28;20191;-87
2023/11/19 03:05:44;;;;;;;2.00;0.80;;;9.40;99.90;;;;;;5014950;28;20635;-86
2023/11/19 03:08:12;;;;;;;1.83;0.90;;;9.40;99.90;;;;;;5014687;28;20200;-87
2023/11/19 03:10:39;;;;;;;2.05;1.00;;;9.50;99.90;;;;;;5014863;28;20188;-85
2023/11/19 03:13:07;;;;;;;2.38;1.00;;;9.50;99.90;;;;;;5014296;28;20619;-86
2023/11/19 03:15:34;;;;;;;2.00;0.80;;;9.50;99.90;;;;;;5014187;28;20196;-86
2023/11/19 03:18:05;;;;;;;2.33;0.80;;;9.50;99.90;;;;;;5014225;28;20216;-86
2023/11/19 03:20:32;;;;;;;2.00;0.90;;;9.50;99.90;;;;;;5014106;28;20180;-86
2023/11/19 03:22:58;;;;;;;2.90;1.20;;;9.60;99.90;;;;;;5014334;28;20236;-86
2023/11/19 03:25:26;;;;;;;1.80;0.70;;;9.70;99.90;;;;;;5014306;28;20286;-85
2023/11/19 03:27:54;;;;;;;3.00;1.15;;;9.90;99.90;;;;;;5014398;28;20443;-84
2023/11/19 03:30:22;;;;;;;3.17;1.20;;;10.10;99.90;;;;;;5014428;28;20547;-87
2023/11/19 03:32:49;;;;;;;1.88;0.88;;;10.20;99.90;;;;;;5013971;28;20678;-88
2023/11/19 03:35:17;;;;;;;3.00;0.63;;;10.40;99.90;;;;;;5014336;28;20242;-88
2023/11/19 03:37:44;;;;;;;1.70;0.63;;;10.60;99.90;;;;;;5013691;28;20694;-88
2023/11/19 03:40:12;;;;;;;2.35;0.75;;;10.70;99.90;;;;;;5014194;28;20230;-85
2023/11/19 03:42:39;;;;;;;1.67;0.60;;;10.80;99.90;;;;;;5013727;28;20647;-87
2023/11/19 03:45:08;;;;;;;1.80;0.70;;;10.90;99.90;;;;;;5014108;28;20445;-88
2023/11/19 03:47:35;;;;;;;1.93;0.60;;;11.00;99.90;;;;;;5014167;28;20192;-85
2023/11/19 03:50:03;;;;;;;1.70;0.70;;;11.10;99.90;;;;;;5013409;28;21023;-85
2023/11/19 03:52:31;;;;;;;2.10;0.70;;;11.20;99.90;;;;;;5013557;28;20933;-87
2023/11/19 03:54:58;;;;;;;3.10;1.07;;;11.30;99.90;;;;;;5014001;28;20864;-87
2023/11/19 03:57:25;;;;;;;2.30;0.80;;;11.30;99.90;;;;;;5014096;28;20789;-86
2023/11/19 03:59:52;;;;;;;2.17;0.70;;;11.40;99.90;;;;;;5013635;28;20514;-85
2023/11/19 04:02:19;;;;;;;2.40;0.80;;;11.40;99.90;;;;;;5013631;28;20952;-85
2023/11/19 04:04:46;;;;;;;1.87;0.63;;;11.50;99.90;;;;;;5013582;28;20471;-85
2023/11/19 04:07:13;;;;;;;2.20;0.70;;;11.60;99.90;;;;;;5013786;28;20846;-85
2023/11/19 04:09:41;;;;;;;1.70;0.70;;;11.60;99.90;;;;;;5013577;28;20485;-85
2023/11/19 04:12:09;;;;;;;2.00;0.80;;;11.60;99.90;;;;;;5013699;28;20463;-85
2023/11/19 04:14:37;;;;;;;2.13;0.87;;;11.70;99.90;;;;;;5013811;28;20467;-85
2023/11/19 04:17:04;;;;;;;1.80;0.73;;;11.70;99.90;;;;;;5013458;28;20497;-85
2023/11/19 04:19:32;;;;;;;1.87;0.80;;;11.70;99.90;;;;;;5013622;28;20566;-85
2023/11/19 04:21:59;;;;;;;1.87;0.70;;;11.80;99.90;;;;;;5013526;28;20466;-85
2023/11/19 04:24:26;;;;;;;4.97;0.90;;;11.80;99.90;;;;;;5013689;28;20435;-86
2023/11/19 04:26:54;;;;;;;2.10;0.83;;;11.80;99.90;;;;;;5013647;28;20439;-86
2023/11/19 04:29:21;;;;;;;2.10;0.70;;;11.80;99.90;;;;;;5013683;28;20475;-87
2023/11/19 04:31:48;;;;;;;2.30;0.90;;;11.80;99.90;;;;;;5013761;28;20803;-87
2023/11/19 04:34:15;;;;;;;1.90;0.70;;;11.80;99.90;;;;;;5013332;28;20478;-85
2023/11/19 04:36:43;;;;;;;1.80;0.70;;;11.90;99.90;;;;;;5013519;28;20439;-87
2023/11/19 04:39:12;;;;;;;4.73;0.87;;;11.90;99.90;;;;;;5013771;28;20482;-84
2023/11/19 04:41:47;;;;;;;2.00;0.80;;;11.90;99.90;;;;;;5013345;28;20439;-85
2023/11/19 04:44:16;;;;;;;1.70;0.60;;;11.90;99.90;;;;;;5013367;28;20525;-85
2023/11/19 04:46:44;;;;;;;2.10;0.70;;;12.00;99.90;;;;;;5013275;28;20478;-85
2023/11/19 04:49:11;;;;;;;1.90;0.73;;;12.00;99.90;;;;;;5013793;28;20443;-85
2023/11/19 04:51:40;;;;;;;2.00;0.70;;;11.90;99.90;;;;;;5013484;28;20443;-85
2023/11/19 04:54:08;;;;;;;1.83;0.70;;;12.00;99.90;;;;;;5013503;28;20443;-85
2023/11/19 04:56:36;;;;;;;5.83;0.90;;;12.00;99.90;;;;;;5013282;28;20964;-84
2023/11/19 04:59:03;;;;;;;2.90;0.83;;;12.00;99.90;;;;;;5013015;28;20573;-85
2023/11/19 05:01:31;;;;;;;1.77;0.70;;;12.00;99.90;;;;;;5013634;28;20517;-85
2023/11/19 05:03:59;;;;;;;1.60;0.60;;;12.00;99.90;;;;;;5016858;28;21005;-84
2023/11/19 05:06:29;;;;;;;1.70;0.60;;;12.00;99.90;;;;;;5016923;28;20917;-85
2023/11/19 05:08:56;;;;;;;2.10;0.70;;;12.00;99.90;;;;;;5016850;28;20442;-84
2023/11/19 05:11:23;;;;;;;1.70;0.60;;;12.00;99.90;;;;;;5017076;28;20486;-84
2023/11/19 05:13:50;;;;;;;1.70;0.70;;;12.00;99.90;;;;;;5017029;28;20450;-83
2023/11/19 05:16:17;;;;;;;2.20;0.70;;;12.00;99.90;;;;;;5016766;28;20467;-83
2023/11/19 05:18:45;;;;;;;1.90;0.50;;;12.00;99.90;;;;;;5016967;28;20471;-84
2023/11/19 05:21:12;;;;;;;5.57;0.60;;;12.00;99.90;;;;;;5016512;28;20477;-84
2023/11/19 05:23:41;;;;;;;1.90;0.80;;;12.00;99.90;;;;;;5016846;28;20490;-84
2023/11/19 05:26:08;;;;;;;1.80;0.90;;;12.00;99.90;;;;;;5016749;28;20443;-84
2023/11/19 05:28:34;;;;;;;1.93;0.70;;;12.00;99.90;;;;;;5016799;28;20505;-84
2023/11/19 05:31:01;;;;;;;1.70;0.60;;;12.00;99.90;;;;;;5016781;28;20462;-85
2023/11/19 05:33:28;;;;;;;2.30;0.70;;;12.00;99.90;;;;;;5016488;28;20443;-84
2023/11/19 05:35:57;;;;;;;2.07;0.70;;;12.00;99.90;;;;;;5016693;28;20522;-84
2023/11/19 05:38:23;;;;;;;2.30;0.80;;;12.00;99.90;;;;;;5016537;28;20506;-84
2023/11/19 05:40:50;;;;;;;1.83;0.77;;;12.00;99.90;;;;;;5016525;28;20534;-85
2023/11/19 05:43:17;;;;;;;1.60;0.60;;;12.00;99.90;;;;;;5016651;28;20510;-85
2023/11/19 05:45:44;;;;;;;1.70;0.60;;;12.00;99.90;;;;;;5016378;28;20497;-85
2023/11/19 05:48:11;;;;;;;1.70;0.60;;;12.00;99.90;;;;;;5016074;28;20526;-84
2023/11/19 05:50:38;;;;;;;1.80;0.80;;;12.00;99.90;;;;;;5016348;28;20474;-85
2023/11/19 05:53:10;;;;;;;1.60;0.50;;;12.00;99.90;;;;;;5016295;28;20471;-85
2023/11/19 05:55:44;;;;;;;1.70;0.60;;;12.00;99.90;;;;;;5016455;28;20424;-85
2023/11/19 05:58:12;;;;;;;2.13;0.70;;;12.00;99.90;;;;;;5016014;28;20557;-85
2023/11/19 06:00:39;;;;;;;1.70;0.60;;;12.00;99.90;;;;;;5016309;28;20509;-85
2023/11/19 06:03:06;;;;;;;1.60;0.60;;;12.00;99.90;;;;;;5016136;28;20435;-84
2023/11/19 06:05:33;;;;;;;1.70;0.60;;;12.00;99.90;;;;;;5016097;28;20853;-85
2023/11/19 06:08:01;;;;;;;2.43;0.60;;;12.00;99.90;;;;;;5015955;28;20467;-84
2023/11/19 06:10:30;;;;;;;1.80;0.60;;;12.00;99.90;;;;;;5015692;28;20441;-85
2023/11/19 06:12:59;;;;;;;1.67;0.60;;;12.00;99.90;;;;;;5015616;28;20530;-84
2023/11/19 06:15:27;;;;;;;1.53;0.50;;;12.00;99.90;;;;;;5015613;28;20457;-85
2023/11/19 06:17:54;;;;;;;1.70;0.60;;;12.00;99.90;;;;;;5015471;28;20439;-84
2023/11/19 06:20:21;;;;;;;1.70;0.60;;;12.00;99.90;;;;;;5015479;28;20479;-84
2023/11/19 06:22:48;;;;;;;1.90;0.80;;;12.00;99.90;;;;;;5015724;28;20431;-85
2023/11/19 06:25:15;;;;;;;1.80;0.60;;;12.00;99.90;;;;;;5015726;28;20446;-86
2023/11/19 06:27:44;;;;;;;1.80;0.60;;;12.00;99.90;;;;;;5015717;28;20471;-85
2023/11/19 06:30:12;;;;;;;1.60;0.50;;;12.00;99.90;;;;;;5015631;28;20443;-85
2023/11/19 06:32:39;;;;;;;1.60;0.50;;;12.00;99.90;;;;;;5015558;28;20439;-86
2023/11/19 06:35:07;;;;;;;1.70;0.70;;;12.00;99.90;;;;;;5015229;28;20439;-86
2023/11/19 06:37:34;;;;;;;1.60;0.50;;;12.00;99.90;;;;;;5015043;28;20438;-86
2023/11/19 06:40:01;;;;;;;1.70;0.60;;;12.00;99.90;;;;;;5015078;28;20506;-86
2023/11/19 06:42:28;;;;;;;1.80;0.60;;;12.00;99.90;;;;;;5015083;28;20523;-85
2023/11/19 06:44:57;;;;;;;1.80;0.83;;;12.00;99.90;;;;;;5015060;28;20522;-86
2023/11/19 06:47:26;;;;;;;1.70;0.80;;;12.00;99.90;;;;;;5015421;28;20439;-85
2023/11/19 06:49:53;;;;;;;1.60;0.50;;;12.10;99.90;;;;;;5014954;28;20447;-85
2023/11/19 06:52:20;;;;;;;2.23;0.60;;;12.10;99.90;;;;;;5015130;28;20467;-86
2023/11/19 06:54:47;;;;;;;1.60;0.60;;;12.00;99.90;;;;;;5014884;28;20918;-85
2023/11/19 06:57:14;;;;;;;1.80;0.50;;;12.00;99.90;;;;;;5014562;28;20513;-86
2023/11/19 06:59:41;;;;;;;1.80;0.70;;;12.00;99.90;;;;;;5015099;28;20502;-86
2023/11/19 07:02:10;;;;;;;1.60;0.60;;;12.10;99.90;;;;;;5015060;28;20526;-85
2023/11/19 07:04:37;;;;;;;1.97;0.70;;;12.00;99.90;;;;;;5014939;28;20566;-86
2023/11/19 07:07:05;;;;;;;1.80;0.60;;;12.00;99.90;;;;;;5014538;28;20523;-85
2023/11/19 07:09:32;;;;;;;1.70;0.60;;;12.10;99.90;;;;;;5014652;28;20435;-85
2023/11/19 07:12:01;;;;;;;1.70;0.50;;;12.10;99.90;;;;;;5014541;28;20471;-85
2023/11/19 07:14:28;;;;;;;1.70;0.60;;;12.10;99.90;;;;;;5014920;28;20553;-86
2023/11/19 07:16:55;;;;;;;2.80;0.60;;;12.10;99.90;;;;;;5014741;28;20517;-84
2023/11/19 07:19:24;;;;;;;1.70;0.60;;;12.10;99.90;;;;;;5014491;28;20498;-85
2023/11/19 07:21:51;;;;;;;1.70;0.60;;;12.20;99.90;;;;;;5014044;28;20946;-85
2023/11/19 07:24:18;;;;;;;2.10;0.67;;;12.20;99.90;;;;;;5013949;28;20438;-85
2023/11/19 07:26:47;;;;;;;1.70;0.60;;;12.20;99.90;;;;;;5014038;28;20848;-85
2023/11/19 07:29:15;;;;;;;2.57;0.60;;;12.20;99.90;;;;;;5014337;28;20443;-84
2023/11/19 07:31:41;;;;;;;1.70;0.70;;;12.20;99.90;;;;;;5014339;28;20845;-85
2023/11/19 07:34:09;;;;;;;1.83;0.60;;;12.20;99.90;;;;;;5015016;28;20850;-85
2023/11/19 07:36:37;;;;;;;1.70;0.57;;;12.20;99.90;;;;;;5012801;28;20490;-85
2023/11/19 07:39:05;;;;;;;1.90;0.80;;;12.20;99.90;;;;;;5012943;28;20475;-86
2023/11/19 07:41:32;;;;;;;1.77;0.60;;;12.30;99.90;;;;;;5013455;28;20527;-85
2023/11/19 07:43:59;;;;;;;1.73;0.70;;;12.30;99.90;;;;;;5028209;28;20466;-86
2023/11/19 07:46:26;;;;;;;1.80;0.60;;;12.30;99.90;;;;;;5030852;28;20444;-85
2023/11/19 07:48:54;;;;;;;1.70;0.50;;;12.30;99.90;;;;;;5030377;28;20492;-86
2023/11/19 07:51:21;;;;;;;1.97;0.60;;;12.30;99.90;;;;;;5031063;28;20825;-85
2023/11/19 07:53:50;;;;;;;1.60;0.60;;;12.30;99.90;;;;;;5030634;28;20961;-86
2023/11/19 07:56:17;;;;;;;2.53;0.70;;;12.30;99.90;;;;;;5030630;28;20434;-84
2023/11/19 07:58:43;;;;;;;2.50;1.30;;;12.30;99.90;;;;;;5030228;28;20493;-85
2023/11/19 08:01:10;;;;;;;1.90;0.60;;;12.30;99.90;;;;;;5016507;28;20896;-85
2023/11/19 08:03:38;;;;;;;1.80;0.60;;;12.30;99.90;;;;;;5016590;28;20443;-85
2023/11/19 08:06:08;;;;;;;1.73;0.53;;;12.40;99.90;;;;;;5017453;28;20466;-85
2023/11/19 08:08:34;;;;;;;1.67;0.50;;;12.50;99.90;;;;;;5029211;28;20767;-84
2023/11/19 08:11:05;;;;;;;1.80;0.70;;;12.50;99.90;;;;;;5024073;28;20442;-87
2023/11/19 08:13:31;;;;;;;1.70;0.60;;;12.50;99.90;;;;;;5013810;28;20439;-84
2023/11/19 08:15:58;;;;;;;1.80;0.70;;;12.70;99.90;;;;;;5008050;28;20447;-86
2023/11/19 08:18:25;;;;;;;2.00;0.73;;;12.60;99.90;;;;;;5027592;28;20960;-84
2023/11/19 08:20:53;;;;;;;1.87;0.60;;;12.70;99.90;;;;;;5029399;28;20536;-84
2023/11/19 08:23:20;;;;;;;1.90;0.70;;;12.70;99.90;;;;;;5030058;28;20461;-84
2023/11/19 08:25:47;;;;;;;1.80;0.60;;;12.70;99.90;;;;;;5029619;28;20437;-86
2023/11/19 08:28:16;;;;;;;1.70;0.50;;;12.80;99.90;;;;;;5030459;28;20488;-86
2023/11/19 08:30:43;;;;;;;1.90;0.73;;;12.80;99.90;;;;;;5030880;28;20427;-84
2023/11/19 08:33:11;;;;;;;1.70;0.53;;;12.80;99.90;;;;;;5019458;28;20772;-84
2023/11/19 08:35:38;;;;;;;2.00;0.57;;;12.90;99.90;;;;;;5029952;28;20535;-85
2023/11/19 08:38:05;;;;;;;2.10;1.03;;;12.90;99.90;;;;;;5034534;28;20434;-86
2023/11/19 08:40:32;;;;;;;1.70;0.70;;;12.90;99.90;;;;;;5035085;28;20510;-84
2023/11/19 08:42:59;;;;;;;1.93;0.60;;;12.80;99.90;;;;;;5016474;28;20478;-85
2023/11/19 08:45:27;;;;;;;2.60;0.80;;;12.90;99.90;;;;;;5033939;28;20469;-87
2023/11/19 08:47:55;;;;;;;1.90;0.80;;;12.90;99.90;;;;;;5033728;28;20512;-85
2023/11/19 08:50:22;;;;;;;1.60;0.60;;;13.00;99.90;;;;;;5034103;28;20437;-84
2023/11/19 08:52:49;;;;;;;2.30;0.70;;;13.00;99.90;;;;;;5020040;28;20443;-85
2023/11/19 08:55:16;;;;;;;2.40;0.90;;;13.00;99.90;;;;;;5021403;28;20471;-84
2023/11/19 08:57:43;;;;;;;1.90;0.80;;;13.00;99.90;;;;;;5018716;28;20889;-85
2023/11/19 09:00:14;;;;;;;1.80;0.70;;;13.10;99.80;;;;;;5015996;28;20482;-85
2023/11/19 09:02:42;;;;;;;2.17;0.80;;;13.10;99.70;;;;;;5017086;28;20431;-86
2023/11/19 09:05:10;;;;;;;2.20;0.80;;;13.20;99.60;;;;;;5016199;28;20454;-85
2023/11/19 09:07:37;;;;;;;2.50;0.80;;;13.20;99.40;;;;;;5016166;28;20446;-85
2023/11/19 09:10:05;;;;;;;3.20;0.90;;;13.20;99.50;;;;;;5014870;28;20541;-85
2023/11/19 09:12:32;;;;;;;1.60;0.60;;;13.20;99.60;;;;;;5020644;28;20492;-86
2023/11/19 09:14:59;;;;;;;1.80;0.63;;;13.40;99.50;;;;;;5022275;28;20443;-85
2023/11/19 09:17:26;;;;;;;1.70;0.60;;;13.40;99.20;;;;;;5024874;28;20441;-85
2023/11/19 09:19:55;;;;;;;1.73;0.60;;;13.50;99.00;;;;;;5024297;28;20522;-84
2023/11/19 09:22:23;;;;;;;2.13;0.70;;;13.60;98.70;;;;;;5024081;28;20435;-84
2023/11/19 09:24:50;;;;;;;2.03;0.90;;;13.60;98.50;;;;;;5023787;28;20489;-84
2023/11/19 09:27:18;;;;;;;2.00;0.80;;;13.60;98.20;;;;;;5025099;28;20438;-88
2023/11/19 09:29:46;;;;;;;2.90;1.00;;;13.70;98.10;;;;;;5022803;28;20447;-84
2023/11/19 09:32:13;;;;;;;2.40;0.90;;;13.80;97.80;;;;;;5024271;28;20445;-84
2023/11/19 09:34:40;;;;;;;2.90;1.20;;;13.80;97.60;;;;;;5023007;28;20492;-86
2023/11/19 09:37:09;;;;;;;2.70;1.10;;;13.90;97.50;;;;;;5021366;28;20466;-84
2023/11/19 09:39:36;;;;;;;2.20;0.70;;;14.00;97.10;;;;;;5024711;28;20442;-85
2023/11/19 09:42:03;;;;;;;2.73;0.70;;;14.10;96.80;;;;;;5022744;28;20455;-84
2023/11/19 09:44:30;;;;;;;1.90;0.70;;;14.10;96.80;;;;;;5028056;28;20442;-84
2023/11/19 09:46:59;;;;;;;4.60;0.70;;;14.20;96.50;;;;;;5022651;28;20449;-84
2023/11/19 09:49:28;;;;;;;3.13;1.33;;;14.30;96.20;;;;;;5023024;28;20791;-85
2023/11/19 09:51:55;;;;;;;1.67;0.57;;;14.40;96.20;;;;;;5022582;28;20505;-86
2023/11/19 09:54:24;;;;;;;1.80;0.70;;;14.60;95.80;;;;;;5023225;28;20439;-86
2023/11/19 09:56:51;;;;;;;1.73;0.60;;;14.90;95.10;;;;;;5023092;28;20508;-86
2023/11/19 09:59:19;;;;;;;1.80;0.60;;;15.20;94.10;;;;;;5027641;28;20933;-85
2023/11/19 10:01:47;;;;;;;1.80;0.50;;;15.40;93.70;;;;;;5023827;28;20519;-86
2023/11/19 10:04:17;;;;;;;1.60;0.50;;;15.50;92.60;;;;;;5022051;28;20534;-84
2023/11/19 10:06:44;;;;;;;1.70;0.50;;;15.70;92.40;;;;;;5021564;28;20430;-85
2023/11/19 10:09:15;;;;;;;3.43;0.80;;;15.90;92.20;;;;;;5023966;28;20934;-86
2023/11/19 10:11:46;;;;;;;2.00;0.50;;;16.10;90.90;;;;;;5025240;28;20441;-85
2023/11/19 10:14:15;;;;;;;1.70;0.50;;;16.30;90.20;;;;;;5023146;28;20454;-87
2023/11/19 10:16:42;;;;;;;1.80;0.60;;;16.30;89.20;;;;;;5024274;28;20940;-86
2023/11/19 10:19:19;;;;;;;1.80;0.70;;;16.10;88.50;;;;;;5023433;28;20438;-86
2023/11/19 10:21:47;;;;;;;2.23;0.70;;;16.10;89.20;;;;;;5022860;28;20485;-87
2023/11/19 10:24:14;;;;;;;1.93;0.70;;;16.10;89.40;;;;;;5021150;28;20513;-86
2023/11/19 10:26:43;;;;;;;1.80;0.80;;;16.00;88.80;;;;;;5023955;28;20474;-87
2023/11/19 10:29:14;;;;;;;1.80;0.50;;;15.90;89.20;;;;;;5020623;28;20459;-86
2023/11/19 10:31:41;;;;;;;1.60;0.50;;;15.80;88.70;;;;;;5021284;28;20454;-86
2023/11/19 10:34:26;;;;;;;1.70;0.50;;;15.60;89.10;;;;;;5023675;28;20462;-86
2023/11/19 10:36:53;;;;;;;1.70;0.60;;;15.50;89.90;;;;;;5021455;28;20993;-88
2023/11/19 10:39:23;;;;;;;1.63;0.50;;;15.40;90.00;;;;;;5022722;28;20519;-85
2023/11/19 10:41:50;;;;;;;1.80;0.60;;;15.30;90.30;;;;;;5022141;28;20577;-87
2023/11/19 10:47:17;;;;;;;1.80;0.60;;;15.20;90.70;;;;;;5149321;27;20803;-85
2023/11/19 10:49:45;;;;;;;1.63;0.50;;;15.30;90.90;;;;;;5148685;27;20452;-85
2023/11/19 10:52:17;;;;;;;1.70;0.60;;;15.30;91.00;;;;;;5149361;27;20938;-85
2023/11/19 10:54:49;;;;;;;2.03;0.60;;;15.20;91.10;;;;;;5149783;27;20490;-84
2023/11/19 10:57:20;;;;;;;1.67;0.50;;;15.30;91.70;;;;;;5149184;27;20429;-86
2023/11/19 10:59:51;;;;;;;1.93;0.70;;;15.50;91.60;;;;;;5149376;27;20452;-87
2023/11/19 11:02:24;;;;;;;1.70;0.60;;;15.70;91.30;;;;;;5149783;27;20445;-86
2023/11/19 11:04:52;;;;;;;1.90;0.67;;;16.00;90.50;;;;;;5149450;27;20433;-88
2023/11/19 11:07:24;;;;;;;1.90;0.80;;;16.20;90.30;;;;;;5148390;27;20518;-86
2023/11/19 11:09:53;;;;;;;1.90;0.70;;;16.60;89.80;;;;;;5147127;27;20842;-87
2023/11/19 11:12:23;;;;;;;3.13;0.50;;;17.00;88.00;;;;;;5148547;27;20429;-86
2023/11/19 11:14:51;;;;;;;1.73;0.50;;;17.50;85.20;;;;;;5148574;27;20421;-87
2023/11/19 11:17:20;;;;;;;1.60;0.40;;;18.00;82.60;;;;;;5148714;27;20537;-86
2023/11/19 11:19:47;;;;;;;1.80;0.50;;;18.00;79.50;;;;;;5149390;27;20812;-86
2023/11/19 11:22:17;;;;;;;1.70;0.60;;;18.00;79.00;;;;;;5148477;27;20479;-87
2023/11/19 11:25:16;;;;;;;1.80;0.50;;;18.10;76.60;;;;;;5149062;27;20428;-86
2023/11/19 11:28:09;;;;;;;1.80;0.50;;;18.20;76.10;;;;;;5145226;27;20513;-87
2023/11/19 11:30:47;;;;;;;1.90;0.50;;;18.40;74.70;;;;;;5148837;27;20452;-86
2023/11/19 11:33:34;;;;;;;1.80;0.57;;;18.80;73.30;;;;;;5147787;27;20433;-86
2023/11/19 11:36:13;;;;;;;1.70;0.50;;;19.00;72.70;;;;;;5149065;27;20436;-87
2023/11/19 11:38:42;;;;;;;1.70;0.60;;;19.20;70.90;;;;;;5146375;27;20804;-86
2023/11/19 11:41:20;;;;;;;1.80;0.57;;;19.20;70.10;;;;;;5147857;27;20437;-86
2023/11/19 11:43:51;;;;;;;2.00;0.50;;;19.80;68.90;;;;;;5144613;27;20497;-86
2023/11/19 11:46:58;;;;;;;1.63;0.53;;;20.20;65.40;;;;;;5148180;27;20559;-87
2023/11/19 11:49:31;;;;;;;1.60;0.50;;;20.30;63.90;;;;;;5147794;27;20429;-87
2023/11/19 11:52:03;;;;;;;1.67;0.50;;;20.40;62.60;;;;;;5148799;27;20433;-87
2023/11/19 11:54:30;;;;;;;1.83;0.50;;;20.40;62.20;;;;;;5148359;27;20575;-87
2023/11/19 11:57:07;;;;;;;1.60;0.50;;;20.40;59.90;;;;;;5143673;27;20441;-87
2023/11/19 11:59:47;;;;;;;2.20;0.70;;;20.40;61.60;;;;;;5133522;27;20899;-87
2023/11/19 12:02:17;;;;;;;1.80;0.60;;;20.60;60.90;;;;;;5131974;27;20436;-88
2023/11/19 12:04:49;;;;;;;1.80;0.57;;;20.80;61.10;;;;;;5133285;27;20445;-87
2023/11/19 12:07:19;;;;;;;2.47;0.90;;;21.00;58.90;;;;;;5130616;27;20876;-87
2023/11/19 12:09:51;;;;;;;1.67;0.50;;;21.10;58.80;;;;;;5132445;27;20550;-87
2023/11/19 12:12:21;;;;;;;3.30;0.60;;;21.60;58.60;;;;;;5133889;27;20538;-86
2023/11/19 12:15:09;;;;;;;2.00;0.70;;;22.20;56.30;;;;;;5134447;27;20429;-86
2023/11/19 12:17:44;;;;;;;2.10;0.60;;;22.90;55.00;;;;;;5133420;27;20469;-86
2023/11/19 12:20:13;;;;;;;1.70;0.50;;;23.00;53.80;;;;;;5134098;27;20458;-86
2023/11/19 12:22:42;;;;;;;2.50;0.70;;;22.90;52.00;;;;;;5090407;27;20528;-88
2023/11/19 12:25:10;;;;;;;2.00;0.50;;;22.60;52.20;;;;;;5119408;27;20433;-89
2023/11/19 12:27:40;;;;;;;1.80;0.60;;;22.40;52.50;;;;;;5125763;27;20773;-88
2023/11/19 12:30:08;;;;;;;1.80;0.60;;;22.20;53.00;;;;;;5126322;27;20438;-87
2023/11/19 12:32:40;;;;;;;1.70;0.60;;;22.10;53.00;;;;;;5132575;27;20891;-88
2023/11/19 12:35:11;;;;;;;3.70;1.00;;;21.90;52.20;;;;;;5133539;27;20472;-90
2023/11/19 12:37:43;;;;;;;1.90;0.60;;;21.50;52.60;;;;;;5132696;27;20487;-88
2023/11/19 12:40:18;;;;;;;2.07;0.70;;;21.20;53.80;;;;;;5133166;27;20443;-89
2023/11/19 12:42:46;;;;;;;1.80;0.60;;;21.20;54.80;;;;;;5133389;27;20441;-88
2023/11/19 12:45:14;;;;;;;1.80;0.60;;;21.10;54.40;;;;;;5131731;27;20465;-89
2023/11/19 12:47:42;;;;;;;1.93;0.60;;;20.90;55.30;;;;;;5133183;27;20846;-88
2023/11/19 12:50:10;;;;;;;1.90;0.60;;;20.80;55.70;;;;;;5133050;27;20513;-90
2023/11/19 12:52:38;;;;;;;1.70;0.50;;;20.70;56.20;;;;;;5132832;27;20494;-89
2023/11/19 12:55:25;;;;;;;1.73;0.60;;;20.50;55.60;;;;;;5132641;27;20524;-89
2023/11/19 12:57:54;;;;;;;1.90;0.70;;;20.50;57.20;;;;;;5132969;27;20441;-89
2023/11/19 13:00:22;;;;;;;3.50;0.70;;;20.40;56.90;;;;;;5131806;27;21224;-88